createdAt,value
2016-04-14T00:00:24.139Z,1003.6
2016-04-14T00:01:24.173Z,1003.64
2016-04-14T00:02:24.207Z,1003.67
2016-04-14T00:03:24.241Z,1003.69
2016-04-14T00:04:24.274Z,1003.64
2016-04-14T00:05:24.308Z,1003.65
2016-04-14T00:06:24.343Z,1003.66
2016-04-14T00:07:24.377Z,1003.61
2016-04-14T00:08:24.426Z,1003.66
2016-04-14T00:09:24.458Z,1003.64
2016-04-14T00:10:24.492Z,1003.66
2016-04-14T00:11:24.526Z,1003.68
2016-04-14T00:12:24.560Z,1003.66
2016-04-14T00:13:24.594Z,1003.68
2016-04-14T00:14:24.627Z,1003.7
2016-04-14T00:15:24.662Z,1003.71
2016-04-14T00:16:24.696Z,1003.73
2016-04-14T00:17:24.729Z,1003.72
2016-04-14T00:18:24.763Z,1003.74
2016-04-14T00:19:24.798Z,1003.69
2016-04-14T00:20:24.847Z,1003.7
2016-04-14T00:21:24.881Z,1003.71
2016-04-14T00:22:24.915Z,1003.71
2016-04-14T00:23:24.949Z,1003.72
2016-04-14T00:24:24.982Z,1003.69
2016-04-14T00:25:25.032Z,1003.73
2016-04-14T00:26:25.050Z,1003.7
2016-04-14T00:27:25.085Z,1003.72
2016-04-14T00:28:25.118Z,1003.73
2016-04-14T00:29:25.152Z,1003.72
2016-04-14T00:30:25.187Z,1003.75
2016-04-14T00:31:25.220Z,1003.74
2016-04-14T00:32:25.269Z,1003.75
2016-04-14T00:33:25.304Z,1003.74
2016-04-14T00:34:25.338Z,1003.74
2016-04-14T00:35:25.372Z,1003.75
2016-04-14T00:36:25.410Z,1003.78
2016-04-14T00:37:25.446Z,1003.78
2016-04-14T00:38:25.480Z,1003.82
2016-04-14T00:39:25.515Z,1003.8
2016-04-14T00:40:25.548Z,1003.8
2016-04-14T00:41:25.582Z,1003.83
2016-04-14T00:42:25.616Z,1003.82
2016-04-14T00:43:25.650Z,1003.82
2016-04-14T00:44:25.684Z,1003.83
2016-04-14T00:45:25.734Z,1003.82
2016-04-14T00:46:25.768Z,1003.84
2016-04-14T00:47:25.787Z,1003.81
2016-04-14T00:48:25.820Z,1003.84
2016-04-14T00:49:25.870Z,1003.83
2016-04-14T00:50:25.904Z,1003.82
2016-04-14T00:51:25.922Z,1003.87
2016-04-14T00:52:25.970Z,1003.85
2016-04-14T00:53:26.006Z,1003.86
2016-04-14T00:54:26.039Z,1003.85
2016-04-14T00:55:26.073Z,1003.85
2016-04-14T00:56:26.106Z,1003.84
2016-04-14T00:57:26.141Z,1003.85
2016-04-14T00:58:26.175Z,1003.83
2016-04-14T00:59:26.208Z,1003.85
2016-04-14T01:00:26.242Z,1003.86
2016-04-14T01:01:26.292Z,1003.88
2016-04-14T01:02:26.310Z,1003.84
2016-04-14T01:03:26.344Z,1003.83
2016-04-14T01:04:26.378Z,1003.84
2016-04-14T01:05:26.412Z,1003.82
2016-04-14T01:06:26.447Z,1003.86
2016-04-14T01:07:26.496Z,1003.85
2016-04-14T01:08:26.530Z,1003.8
2016-04-14T01:09:26.563Z,1003.82
2016-04-14T01:10:26.598Z,1003.84
2016-04-14T01:11:26.632Z,1003.85
2016-04-14T01:12:26.665Z,1003.85
2016-04-14T01:13:26.699Z,1003.87
2016-04-14T01:14:26.734Z,1003.88
2016-04-14T01:15:26.782Z,1003.88
2016-04-14T01:16:26.801Z,1003.86
2016-04-14T01:17:26.851Z,1003.87
2016-04-14T01:18:26.878Z,1003.9
2016-04-14T01:19:26.913Z,1003.88
2016-04-14T01:20:26.947Z,1003.85
2016-04-14T01:21:26.981Z,1003.85
2016-04-14T01:22:27.014Z,1003.88
2016-04-14T01:23:27.049Z,1003.85
2016-04-14T01:24:27.083Z,1003.87
2016-04-14T01:25:27.116Z,1003.87
2016-04-14T01:26:27.150Z,1003.91
2016-04-14T01:27:27.185Z,1003.89
2016-04-14T01:28:27.233Z,1003.88
2016-04-14T01:29:27.252Z,1003.84
2016-04-14T01:30:27.302Z,1003.84
2016-04-14T01:31:27.320Z,1003.84
2016-04-14T01:32:27.355Z,1003.86
2016-04-14T01:33:27.388Z,1003.83
2016-04-14T01:34:27.422Z,1003.85
2016-04-14T01:35:27.456Z,1003.87
2016-04-14T01:36:27.505Z,1003.85
2016-04-14T01:37:27.540Z,1003.86
2016-04-14T01:38:27.573Z,1003.88
2016-04-14T01:39:27.607Z,1003.84
2016-04-14T01:40:27.641Z,1003.85
2016-04-14T01:41:27.675Z,1003.86
2016-04-14T01:42:27.709Z,1003.9
2016-04-14T01:43:27.743Z,1003.91
2016-04-14T01:44:27.777Z,1003.93
2016-04-14T01:45:27.811Z,1003.91
2016-04-14T01:46:27.845Z,1003.92
2016-04-14T01:47:27.878Z,1003.93
2016-04-14T01:48:27.912Z,1003.9
2016-04-14T01:49:27.962Z,1003.94
2016-04-14T01:50:27.981Z,1003.95
2016-04-14T01:51:28.014Z,1003.93
2016-04-14T01:52:28.048Z,1003.92
2016-04-14T01:53:28.083Z,1003.92
2016-04-14T01:54:28.116Z,1003.97
2016-04-14T01:55:28.213Z,1003.95
2016-04-14T01:56:28.183Z,1003.99
2016-04-14T01:57:28.219Z,1003.97
2016-04-14T01:58:28.252Z,1003.98
2016-04-14T01:59:28.302Z,1004
2016-04-14T02:00:28.320Z,1003.96
2016-04-14T02:01:28.369Z,1004.02
2016-04-14T02:02:28.404Z,1004.02
2016-04-14T02:03:28.438Z,1004
2016-04-14T02:04:28.471Z,1003.99
2016-04-14T02:05:28.505Z,1003.98
2016-04-14T02:06:28.539Z,1003.98
2016-04-14T02:07:28.573Z,1003.96
2016-04-14T02:08:28.607Z,1003.97
2016-04-14T02:09:28.641Z,1003.96
2016-04-14T02:10:28.675Z,1003.96
2016-04-14T02:11:28.709Z,1003.95
2016-04-14T02:12:28.742Z,1003.95
2016-04-14T02:13:28.776Z,1003.98
2016-04-14T02:14:28.811Z,1003.94
2016-04-14T02:15:28.845Z,1003.94
2016-04-14T02:16:28.879Z,1003.87
2016-04-14T02:17:28.929Z,1003.9
2016-04-14T02:18:28.947Z,1003.87
2016-04-14T02:19:28.980Z,1003.88
2016-04-14T02:20:29.015Z,1003.94
2016-04-14T02:21:29.048Z,1003.92
2016-04-14T02:22:29.083Z,1003.91
2016-04-14T02:23:29.117Z,1003.89
2016-04-14T02:24:29.166Z,1003.87
2016-04-14T02:25:29.231Z,1003.89
2016-04-14T02:26:29.233Z,1003.89
2016-04-14T02:27:29.252Z,1003.88
2016-04-14T02:28:29.285Z,1003.91
2016-04-14T02:29:29.336Z,1003.93
2016-04-14T02:30:29.369Z,1003.94
2016-04-14T02:31:29.387Z,1003.95
2016-04-14T02:32:29.453Z,1003.89
2016-04-14T02:33:29.471Z,1003.91
2016-04-14T02:34:29.505Z,1003.9
2016-04-14T02:35:29.539Z,1003.9
2016-04-14T02:36:29.573Z,1003.89
2016-04-14T02:37:29.607Z,1003.86
2016-04-14T02:38:29.641Z,1003.9
2016-04-14T02:39:29.674Z,1003.92
2016-04-14T02:40:29.834Z,1003.91
2016-04-14T02:41:29.743Z,1003.9
2016-04-14T02:42:29.776Z,1003.91
2016-04-14T02:43:29.810Z,1003.9
2016-04-14T02:44:29.845Z,1003.95
2016-04-14T02:45:29.878Z,1003.93
2016-04-14T02:46:29.912Z,1003.97
2016-04-14T02:47:29.946Z,1003.96
2016-04-14T02:48:29.980Z,1003.94
2016-04-14T02:49:30.014Z,1003.91
2016-04-14T02:50:30.048Z,1003.99
2016-04-14T02:51:30.081Z,1003.95
2016-04-14T02:52:30.117Z,1003.98
2016-04-14T02:53:30.150Z,1004
2016-04-14T02:54:30.184Z,1004.01
2016-04-14T02:55:30.217Z,1004.02
2016-04-14T02:56:30.252Z,1004
2016-04-14T02:57:30.286Z,1004
2016-04-14T02:58:30.319Z,1004.03
2016-04-14T02:59:30.353Z,1004.02
2016-04-14T03:00:30.388Z,1003.99
2016-04-14T03:01:30.422Z,1004
2016-04-14T03:02:30.455Z,1004.03
2016-04-14T03:03:30.505Z,1004.01
2016-04-14T03:04:30.523Z,1004.03
2016-04-14T03:05:30.558Z,1004.04
2016-04-14T03:06:30.591Z,1004
2016-04-14T03:07:30.624Z,1004.03
2016-04-14T03:08:30.660Z,1004.02
2016-04-14T03:09:30.693Z,1004.05
2016-04-14T03:10:30.727Z,1004.05
2016-04-14T03:11:30.776Z,1004.06
2016-04-14T03:12:30.795Z,1004.06
2016-04-14T03:13:30.828Z,1004.04
2016-04-14T03:14:30.863Z,1004.05
2016-04-14T03:15:30.896Z,1004.07
2016-04-14T03:16:30.930Z,1004.06
2016-04-14T03:17:30.965Z,1004.05
2016-04-14T03:18:31.014Z,1004.1
2016-04-14T03:19:31.032Z,1004.05
2016-04-14T03:20:31.067Z,1004.05
2016-04-14T03:21:31.116Z,1004.04
2016-04-14T03:22:31.134Z,1004.06
2016-04-14T03:23:31.168Z,1004.04
2016-04-14T03:24:31.202Z,1004.07
2016-04-14T03:25:31.252Z,1004.08
2016-04-14T03:26:31.286Z,1004.05
2016-04-14T03:27:31.319Z,1004.07
2016-04-14T03:28:31.339Z,1004.09
2016-04-14T03:29:31.388Z,1004.09
2016-04-14T03:30:31.406Z,1004.11
2016-04-14T03:31:31.439Z,1004.08
2016-04-14T03:32:31.474Z,1004.09
2016-04-14T03:33:31.508Z,1004.11
2016-04-14T03:34:31.557Z,1004.13
2016-04-14T03:35:31.591Z,1004.13
2016-04-14T03:36:31.609Z,1004.14
2016-04-14T03:37:31.643Z,1004.15
2016-04-14T03:38:31.693Z,1004.14
2016-04-14T03:39:31.711Z,1004.15
2016-04-14T03:40:31.760Z,1004.19
2016-04-14T03:41:31.795Z,1004.18
2016-04-14T03:42:31.813Z,1004.2
2016-04-14T03:43:31.846Z,1004.22
2016-04-14T03:44:31.881Z,1004.21
2016-04-14T03:45:31.915Z,1004.23
2016-04-14T03:46:31.948Z,1004.17
2016-04-14T03:47:31.999Z,1004.19
2016-04-14T03:48:32.032Z,1004.19
2016-04-14T03:49:32.050Z,1004.19
2016-04-14T03:50:32.085Z,1004.15
2016-04-14T03:51:32.134Z,1004.19
2016-04-14T03:52:32.153Z,1004.16
2016-04-14T03:53:32.202Z,1004.2
2016-04-14T03:54:32.220Z,1004.17
2016-04-14T03:55:32.270Z,1004.21
2016-04-14T03:56:32.304Z,1004.2
2016-04-14T03:57:32.322Z,1004.19
2016-04-14T03:58:32.371Z,1004.21
2016-04-14T03:59:32.389Z,1004.21
2016-04-14T04:00:32.424Z,1004.2
2016-04-14T04:01:32.458Z,1004.21
2016-04-14T04:02:32.491Z,1004.22
2016-04-14T04:03:32.525Z,1004.22
2016-04-14T04:04:32.560Z,1004.21
2016-04-14T04:05:32.609Z,1004.22
2016-04-14T04:06:32.627Z,1004.24
2016-04-14T04:07:32.661Z,1004.27
2016-04-14T04:08:32.710Z,1004.29
2016-04-14T04:09:32.730Z,1004.29
2016-04-14T04:10:32.779Z,1004.29
2016-04-14T04:11:32.796Z,1004.33
2016-04-14T04:12:32.832Z,1004.31
2016-04-14T04:13:32.865Z,1004.32
2016-04-14T04:14:32.899Z,1004.35
2016-04-14T04:15:32.933Z,1004.38
2016-04-14T04:16:32.967Z,1004.34
2016-04-14T04:17:33.001Z,1004.32
2016-04-14T04:18:33.035Z,1004.36
2016-04-14T04:19:33.068Z,1004.32
2016-04-14T04:20:33.103Z,1004.34
2016-04-14T04:21:33.137Z,1004.34
2016-04-14T04:22:33.187Z,1004.36
2016-04-14T04:23:33.204Z,1004.34
2016-04-14T04:24:33.239Z,1004.36
2016-04-14T04:25:33.272Z,1004.33
2016-04-14T04:26:33.306Z,1004.35
2016-04-14T04:27:33.340Z,1004.38
2016-04-14T04:28:33.375Z,1004.39
2016-04-14T04:29:33.408Z,1004.41
2016-04-14T04:30:33.441Z,1004.38
2016-04-14T04:31:33.476Z,1004.39
2016-04-14T04:32:33.510Z,1004.41
2016-04-14T04:33:33.544Z,1004.36
2016-04-14T04:34:33.578Z,1004.41
2016-04-14T04:35:33.611Z,1004.42
2016-04-14T04:36:33.646Z,1004.45
2016-04-14T04:37:33.680Z,1004.43
2016-04-14T04:38:33.713Z,1004.43
2016-04-14T04:39:33.747Z,1004.44
2016-04-14T04:40:33.781Z,1004.44
2016-04-14T04:41:33.815Z,1004.46
2016-04-14T04:42:33.849Z,1004.46
2016-04-14T04:43:33.883Z,1004.49
2016-04-14T04:44:33.917Z,1004.49
2016-04-14T04:45:33.951Z,1004.49
2016-04-14T04:46:33.985Z,1004.52
2016-04-14T04:47:34.018Z,1004.51
2016-04-14T04:48:34.053Z,1004.55
2016-04-14T04:49:34.087Z,1004.55
2016-04-14T04:50:34.120Z,1004.56
2016-04-14T04:51:34.154Z,1004.57
2016-04-14T04:52:34.189Z,1004.57
2016-04-14T04:53:34.223Z,1004.56
2016-04-14T04:54:34.256Z,1004.6
2016-04-14T04:55:34.290Z,1004.59
2016-04-14T04:56:34.325Z,1004.63
2016-04-14T04:57:34.358Z,1004.59
2016-04-14T04:58:34.392Z,1004.61
2016-04-14T04:59:34.425Z,1004.6
2016-04-14T05:00:34.460Z,1004.6
2016-04-14T05:01:34.495Z,1004.61
2016-04-14T05:02:34.528Z,1004.62
2016-04-14T05:03:34.561Z,1004.61
2016-04-14T05:04:34.597Z,1004.61
2016-04-14T05:05:34.630Z,1004.63
2016-04-14T05:06:34.664Z,1004.65
2016-04-14T05:07:34.697Z,1004.68
2016-04-14T05:08:34.732Z,1004.71
2016-04-14T05:09:34.765Z,1004.69
2016-04-14T05:10:34.800Z,1004.7
2016-04-14T05:11:34.833Z,1004.71
2016-04-14T05:12:34.868Z,1004.73
2016-04-14T05:13:34.916Z,1004.7
2016-04-14T05:14:34.994Z,1004.74
2016-04-14T05:15:35.072Z,1004.7
2016-04-14T05:16:35.151Z,1004.73
2016-04-14T05:17:35.230Z,1004.72
2016-04-14T05:18:35.298Z,1004.7
2016-04-14T05:19:35.349Z,1004.73
2016-04-14T05:20:35.399Z,1004.7
2016-04-14T05:21:35.449Z,1004.71
2016-04-14T05:22:35.499Z,1004.72
2016-04-14T05:23:35.546Z,1004.74
2016-04-14T05:24:35.586Z,1004.74
2016-04-14T05:25:35.625Z,1004.76
2016-04-14T05:26:35.664Z,1004.81
2016-04-14T05:27:35.704Z,1004.85
2016-04-14T05:28:35.744Z,1004.85
2016-04-14T05:29:35.780Z,1004.88
2016-04-14T05:30:35.815Z,1004.85
2016-04-14T05:31:35.852Z,1004.86
2016-04-14T05:32:35.889Z,1004.88
2016-04-14T05:33:35.924Z,1004.94
2016-04-14T05:34:35.958Z,1004.9
2016-04-14T05:35:35.993Z,1004.88
2016-04-14T05:36:36.029Z,1004.92
2016-04-14T05:37:36.063Z,1004.9
2016-04-14T05:38:36.097Z,1004.94
2016-04-14T05:39:36.131Z,1004.94
2016-04-14T05:40:36.166Z,1004.99
2016-04-14T05:41:36.199Z,1004.99
2016-04-14T05:42:36.233Z,1005.01
2016-04-14T05:43:36.266Z,1005.04
2016-04-14T05:44:36.301Z,1005.04
2016-04-14T05:45:36.335Z,1005.05
2016-04-14T05:46:36.369Z,1005.03
2016-04-14T05:47:36.403Z,1005.02
2016-04-14T05:48:36.437Z,1005.01
2016-04-14T05:49:36.471Z,1005.02
2016-04-14T05:50:36.505Z,1005.04
2016-04-14T05:51:36.554Z,1005.02
2016-04-14T05:52:36.588Z,1005.03
2016-04-14T05:53:36.623Z,1005.03
2016-04-14T05:54:36.656Z,1004.99
2016-04-14T05:55:36.690Z,1005.05
2016-04-14T05:56:36.723Z,1005.01
2016-04-14T05:57:36.758Z,1005
2016-04-14T05:58:36.792Z,1004.99
2016-04-14T05:59:36.826Z,1005.04
2016-04-14T06:00:36.860Z,1005.02
2016-04-14T06:01:36.894Z,1005.02
2016-04-14T06:02:36.928Z,1005.02
2016-04-14T06:03:36.962Z,1005.07
2016-04-14T06:04:37.011Z,1005.05
2016-04-14T06:05:37.045Z,1005.08
2016-04-14T06:06:37.078Z,1005.07
2016-04-14T06:07:37.097Z,1005.04
2016-04-14T06:08:37.146Z,1005.08
2016-04-14T06:09:37.180Z,1005.07
2016-04-14T06:10:37.214Z,1005.07
2016-04-14T06:11:37.248Z,1005.1
2016-04-14T06:12:37.282Z,1005.12
2016-04-14T06:13:37.316Z,1005.1
2016-04-14T06:14:37.349Z,1005.12
2016-04-14T06:15:37.384Z,1005.1
2016-04-14T06:16:37.418Z,1005.07
2016-04-14T06:17:37.468Z,1005.06
2016-04-14T06:18:37.501Z,1005.02
2016-04-14T06:19:37.536Z,1005.04
2016-04-14T06:20:37.570Z,1004.99
2016-04-14T06:21:37.604Z,1005.01
2016-04-14T06:22:37.653Z,1005.02
2016-04-14T06:23:37.671Z,1005.04
2016-04-14T06:24:37.706Z,1005.08
2016-04-14T06:25:37.755Z,1005.09
2016-04-14T06:26:37.790Z,1005.08
2016-04-14T06:27:37.823Z,1005.1
2016-04-14T06:28:37.857Z,1005.09
2016-04-14T06:29:37.891Z,1005.1
2016-04-14T06:30:37.925Z,1005.13
2016-04-14T06:31:37.975Z,1005.12
2016-04-14T06:32:38.008Z,1005.13
2016-04-14T06:33:38.042Z,1005.1
2016-04-14T06:34:38.075Z,1005.18
2016-04-14T06:35:38.125Z,1005.15
2016-04-14T06:36:38.191Z,1005.12
2016-04-14T06:37:38.193Z,1005.13
2016-04-14T06:38:38.227Z,1005.13
2016-04-14T06:39:38.277Z,1005.12
2016-04-14T06:40:38.327Z,1005.11
2016-04-14T06:41:38.345Z,1005.09
2016-04-14T06:42:38.379Z,1005.1
2016-04-14T06:43:38.428Z,1005.1
2016-04-14T06:44:38.462Z,1005.11
2016-04-14T06:45:38.574Z,1005.09
2016-04-14T06:46:38.530Z,1005.14
2016-04-14T06:47:38.580Z,1005.12
2016-04-14T06:48:38.613Z,1005.11
2016-04-14T06:49:38.648Z,1005.1
2016-04-14T06:50:38.696Z,1005.1
2016-04-14T06:51:38.731Z,1005.12
2016-04-14T06:52:38.765Z,1005.06
2016-04-14T06:53:38.799Z,1005.08
2016-04-14T06:54:38.849Z,1005.1
2016-04-14T06:55:38.882Z,1005.11
2016-04-14T06:56:38.948Z,1005.14
2016-04-14T06:57:38.966Z,1005.12
2016-04-14T06:58:39.001Z,1005.11
2016-04-14T06:59:39.035Z,1005.14
2016-04-14T07:00:39.068Z,1005.14
2016-04-14T07:01:39.118Z,1005.17
2016-04-14T07:02:39.152Z,1005.12
2016-04-14T07:03:39.186Z,1005.12
2016-04-14T07:04:39.221Z,1005.17
2016-04-14T07:05:39.270Z,1005.19
2016-04-14T07:06:39.377Z,1005.23
2016-04-14T07:07:39.333Z,1005.23
2016-04-14T07:08:39.408Z,1005.23
2016-04-14T07:09:39.411Z,1005.24
2016-04-14T07:10:39.480Z,1005.25
2016-04-14T07:11:39.485Z,1005.22
2016-04-14T07:12:39.535Z,1005.23
2016-04-14T07:13:39.568Z,1005.21
2016-04-14T07:14:39.626Z,1005.23
2016-04-14T07:15:39.643Z,1005.24
2016-04-14T07:16:39.672Z,1005.23
2016-04-14T07:17:40.208Z,1005.21
2016-04-14T07:18:39.757Z,1005.23
2016-04-14T07:19:39.791Z,1005.28
2016-04-14T07:20:39.825Z,1005.28
2016-04-14T07:21:39.859Z,1005.29
2016-04-14T07:22:39.908Z,1005.33
2016-04-14T07:23:39.957Z,1005.34
2016-04-14T07:24:39.976Z,1005.35
2016-04-14T07:25:40.010Z,1005.31
2016-04-14T07:26:40.059Z,1005.34
2016-04-14T07:27:40.093Z,1005.36
2016-04-14T07:28:40.142Z,1005.39
2016-04-14T07:29:40.176Z,1005.4
2016-04-14T07:30:40.211Z,1005.45
2016-04-14T07:31:40.245Z,1005.39
2016-04-14T07:32:40.278Z,1005.44
2016-04-14T07:33:40.312Z,1005.43
2016-04-14T07:34:40.362Z,1005.4
2016-04-14T07:35:40.396Z,1005.43
2016-04-14T07:36:40.430Z,1005.39
2016-04-14T07:37:40.464Z,1005.44
2016-04-14T07:38:40.514Z,1005.45
2016-04-14T07:39:40.548Z,1005.46
2016-04-14T07:40:40.582Z,1005.45
2016-04-14T07:41:40.647Z,1005.43
2016-04-14T07:42:40.650Z,1005.47
2016-04-14T07:43:40.699Z,1005.47
2016-04-14T07:44:40.733Z,1005.46
2016-04-14T07:45:40.767Z,1005.48
2016-04-14T07:46:40.801Z,1005.48
2016-04-14T07:47:40.850Z,1005.48
2016-04-14T07:48:40.884Z,1005.46
2016-04-14T07:49:40.918Z,1005.47
2016-04-14T07:50:40.952Z,1005.45
2016-04-14T07:51:41.001Z,1005.48
2016-04-14T07:52:41.036Z,1005.47
2016-04-14T07:53:41.070Z,1005.45
2016-04-14T07:54:41.104Z,1005.49
2016-04-14T07:55:41.154Z,1005.47
2016-04-14T07:56:41.218Z,1005.52
2016-04-14T07:57:41.221Z,1005.5
2016-04-14T07:58:41.254Z,1005.48
2016-04-14T07:59:41.304Z,1005.48
2016-04-14T08:00:41.338Z,1005.57
2016-04-14T08:01:41.372Z,1005.62
2016-04-14T08:02:41.422Z,1005.6
2016-04-14T08:03:41.440Z,1005.63
2016-04-14T08:04:41.490Z,1005.63
2016-04-14T08:05:41.539Z,1005.64
2016-04-14T08:06:41.573Z,1005.61
2016-04-14T08:07:41.608Z,1005.59
2016-04-14T08:08:41.638Z,1005.59
2016-04-14T08:09:41.665Z,1005.58
2016-04-14T08:10:41.700Z,1005.59
2016-04-14T08:11:41.749Z,1005.59
2016-04-14T08:12:41.783Z,1005.52
2016-04-14T08:13:41.833Z,1005.54
2016-04-14T08:14:41.867Z,1005.56
2016-04-14T08:15:41.916Z,1005.55
2016-04-14T08:16:41.950Z,1005.55
2016-04-14T08:17:41.984Z,1005.59
2016-04-14T08:18:42.018Z,1005.62
2016-04-14T08:19:42.052Z,1005.59
2016-04-14T08:20:42.102Z,1005.64
2016-04-14T08:21:42.135Z,1005.65
2016-04-14T08:22:42.185Z,1005.62
2016-04-14T08:23:42.219Z,1005.66
2016-04-14T08:24:42.268Z,1005.64
2016-04-14T08:25:42.302Z,1005.61
2016-04-14T08:26:42.351Z,1005.6
2016-04-14T08:27:42.385Z,1005.63
2016-04-14T08:28:42.435Z,1005.62
2016-04-14T08:29:42.469Z,1005.63
2016-04-14T08:30:42.519Z,1005.61
2016-04-14T08:31:42.552Z,1005.61
2016-04-14T08:32:42.602Z,1005.63
2016-04-14T08:33:42.637Z,1005.61
2016-04-14T08:34:42.685Z,1005.65
2016-04-14T08:35:42.720Z,1005.61
2016-04-14T08:36:42.761Z,1005.65
2016-04-14T08:37:42.811Z,1005.7
2016-04-14T08:38:42.845Z,1005.66
2016-04-14T08:39:42.895Z,1005.67
2016-04-14T08:40:42.929Z,1005.67
2016-04-14T08:41:42.994Z,1005.66
2016-04-14T08:42:43.012Z,1005.69
2016-04-14T08:43:43.062Z,1005.67
2016-04-14T08:44:43.095Z,1005.71
2016-04-14T08:45:43.145Z,1005.71
2016-04-14T08:46:43.194Z,1005.72
2016-04-14T08:47:43.228Z,1005.73
2016-04-14T08:48:43.263Z,1005.69
2016-04-14T08:49:43.311Z,1005.67
2016-04-14T08:50:43.674Z,1005.71
2016-04-14T08:51:43.395Z,1005.71
2016-04-14T08:52:43.429Z,1005.7
2016-04-14T08:53:43.463Z,1005.71
2016-04-14T08:54:43.513Z,1005.64
2016-04-14T08:55:43.547Z,1005.66
2016-04-14T08:56:43.643Z,1005.69
2016-04-14T08:57:43.646Z,1005.68
2016-04-14T08:58:43.679Z,1005.64
2016-04-14T08:59:43.713Z,1005.68
2016-04-14T09:00:43.763Z,1005.71
2016-04-14T09:01:43.813Z,1005.71
2016-04-14T09:02:43.863Z,1005.7
2016-04-14T09:03:43.897Z,1005.7
2016-04-14T09:04:43.931Z,1005.72
2016-04-14T09:05:43.980Z,1005.76
2016-04-14T09:06:44.030Z,1005.77
2016-04-14T09:07:44.079Z,1005.82
2016-04-14T09:08:44.113Z,1005.72
2016-04-14T09:09:44.147Z,1005.74
2016-04-14T09:10:44.197Z,1005.72
2016-04-14T09:11:44.245Z,1005.71
2016-04-14T09:12:44.295Z,1005.73
2016-04-14T09:13:44.330Z,1005.75
2016-04-14T09:14:44.378Z,1005.74
2016-04-14T09:15:44.429Z,1005.71
2016-04-14T09:16:44.463Z,1005.73
2016-04-14T09:17:44.512Z,1005.74
2016-04-14T09:18:44.547Z,1005.74
2016-04-14T09:19:44.611Z,1005.74
2016-04-14T09:20:44.645Z,1005.7
2016-04-14T09:21:44.694Z,1005.76
2016-04-14T09:22:44.729Z,1005.78
2016-04-14T09:23:44.777Z,1005.77
2016-04-14T09:24:44.812Z,1005.74
2016-04-14T09:25:44.862Z,1005.74
2016-04-14T09:26:44.896Z,1005.73
2016-04-14T09:27:44.945Z,1005.76
2016-04-14T09:28:44.996Z,1005.77
2016-04-14T09:29:45.029Z,1005.77
2016-04-14T09:30:45.079Z,1005.73
2016-04-14T09:31:45.112Z,1005.72
2016-04-14T09:32:45.162Z,1005.75
2016-04-14T09:33:45.212Z,1005.73
2016-04-14T09:34:45.245Z,1005.74
2016-04-14T09:35:45.279Z,1005.72
2016-04-14T09:36:45.329Z,1005.75
2016-04-14T09:37:45.379Z,1005.71
2016-04-14T09:38:45.398Z,1005.72
2016-04-14T09:39:45.446Z,1005.74
2016-04-14T09:40:45.481Z,1005.7
2016-04-14T09:41:45.530Z,1005.78
2016-04-14T09:42:45.564Z,1005.73
2016-04-14T09:43:45.613Z,1005.78
2016-04-14T09:44:45.647Z,1005.78
2016-04-14T09:45:45.697Z,1005.76
2016-04-14T09:46:45.730Z,1005.82
2016-04-14T09:47:45.764Z,1005.79
2016-04-14T09:48:45.814Z,1005.84
2016-04-14T09:49:45.864Z,1005.83
2016-04-14T09:50:45.897Z,1005.81
2016-04-14T09:51:45.932Z,1005.85
2016-04-14T09:52:45.966Z,1005.82
2016-04-14T09:53:46.015Z,1005.79
2016-04-14T09:54:46.049Z,1005.78
2016-04-14T09:55:46.082Z,1005.83
2016-04-14T09:56:46.132Z,1005.82
2016-04-14T09:57:46.166Z,1005.82
2016-04-14T09:58:46.216Z,1005.78
2016-04-14T09:59:46.249Z,1005.74
2016-04-14T10:00:46.299Z,1005.74
2016-04-14T10:01:46.334Z,1005.77
2016-04-14T10:02:46.368Z,1005.79
2016-04-14T10:03:46.417Z,1005.79
2016-04-14T10:04:46.451Z,1005.8
2016-04-14T10:05:46.485Z,1005.81
2016-04-14T10:06:46.534Z,1005.79
2016-04-14T10:07:46.569Z,1005.75
2016-04-14T10:08:46.618Z,1005.8
2016-04-14T10:09:46.652Z,1005.8
2016-04-14T10:10:46.687Z,1005.83
2016-04-14T10:11:46.736Z,1005.88
2016-04-14T10:12:46.770Z,1005.86
2016-04-14T10:13:46.819Z,1005.84
2016-04-14T10:14:46.853Z,1005.83
2016-04-14T10:15:46.902Z,1005.87
2016-04-14T10:16:46.936Z,1005.86
2016-04-14T10:17:46.970Z,1005.87
2016-04-14T10:18:47.005Z,1005.84
2016-04-14T10:19:47.054Z,1005.84
2016-04-14T10:20:47.088Z,1005.91
2016-04-14T10:21:47.122Z,1005.91
2016-04-14T10:22:47.171Z,1005.95
2016-04-14T10:23:47.205Z,1005.88
2016-04-14T10:24:47.239Z,1005.88
2016-04-14T10:25:47.288Z,1005.86
2016-04-14T10:26:47.322Z,1005.85
2016-04-14T10:27:47.371Z,1005.86
2016-04-14T10:28:47.406Z,1005.88
2016-04-14T10:29:47.440Z,1005.87
2016-04-14T10:30:47.490Z,1005.83
2016-04-14T10:31:47.540Z,1005.87
2016-04-14T10:32:47.573Z,1005.84
2016-04-14T10:33:47.607Z,1005.83
2016-04-14T10:34:47.641Z,1005.81
2016-04-14T10:35:47.690Z,1005.81
2016-04-14T10:36:47.725Z,1005.82
2016-04-14T10:37:47.759Z,1005.84
2016-04-14T10:38:47.809Z,1005.85
2016-04-14T10:39:47.843Z,1005.8
2016-04-14T10:40:47.876Z,1005.86
2016-04-14T10:41:47.926Z,1005.83
2016-04-14T10:42:47.959Z,1005.81
2016-04-14T10:43:47.993Z,1005.81
2016-04-14T10:44:48.042Z,1005.86
2016-04-14T10:45:48.078Z,1005.83
2016-04-14T10:46:48.111Z,1005.82
2016-04-14T10:47:48.161Z,1005.81
2016-04-14T10:48:48.195Z,1005.82
2016-04-14T10:49:48.244Z,1005.84
2016-04-14T10:50:48.278Z,1005.83
2016-04-14T10:51:48.327Z,1005.81
2016-04-14T10:52:48.361Z,1005.84
2016-04-14T10:53:48.394Z,1005.83
2016-04-14T10:54:48.444Z,1005.82
2016-04-14T10:55:48.479Z,1005.82
2016-04-14T10:56:48.513Z,1005.8
2016-04-14T10:57:48.563Z,1005.81
2016-04-14T10:58:48.596Z,1005.76
2016-04-14T10:59:48.630Z,1005.74
2016-04-14T11:00:48.679Z,1005.8
2016-04-14T11:01:48.713Z,1005.79
2016-04-14T11:02:48.748Z,1005.83
2016-04-14T11:03:48.797Z,1005.83
2016-04-14T11:04:48.847Z,1005.82
2016-04-14T11:05:48.897Z,1005.83
2016-04-14T11:06:48.915Z,1005.8
2016-04-14T11:07:48.949Z,1005.8
2016-04-14T11:08:48.998Z,1005.81
2016-04-14T11:09:49.048Z,1005.81
2016-04-14T11:10:49.082Z,1005.88
2016-04-14T11:11:49.115Z,1005.87
2016-04-14T11:12:49.165Z,1005.84
2016-04-14T11:13:49.198Z,1005.83
2016-04-14T11:14:49.234Z,1005.83
2016-04-14T11:15:49.283Z,1005.81
2016-04-14T11:16:49.317Z,1005.8
2016-04-14T11:17:49.350Z,1005.79
2016-04-14T11:18:49.400Z,1005.74
2016-04-14T11:19:49.434Z,1005.73
2016-04-14T11:20:49.483Z,1005.73
2016-04-14T11:21:49.517Z,1005.77
2016-04-14T11:22:49.551Z,1005.79
2016-04-14T11:23:49.600Z,1005.75
2016-04-14T11:24:49.635Z,1005.8
2016-04-14T11:25:49.685Z,1005.8
2016-04-14T11:26:49.719Z,1005.75
2016-04-14T11:27:49.768Z,1005.75
2016-04-14T11:28:49.802Z,1005.74
2016-04-14T11:29:49.866Z,1005.73
2016-04-14T11:30:49.869Z,1005.73
2016-04-14T11:31:49.935Z,1005.78
2016-04-14T11:32:49.954Z,1005.73
2016-04-14T11:33:50.003Z,1005.73
2016-04-14T11:34:50.036Z,1005.7
2016-04-14T11:35:50.086Z,1005.71
2016-04-14T11:36:50.120Z,1005.75
2016-04-14T11:37:50.153Z,1005.69
2016-04-14T11:38:50.203Z,1005.67
2016-04-14T11:39:50.236Z,1005.66
2016-04-14T11:40:50.286Z,1005.69
2016-04-14T11:41:50.320Z,1005.66
2016-04-14T11:42:50.355Z,1005.67
2016-04-14T11:43:50.389Z,1005.65
2016-04-14T11:44:50.438Z,1005.66
2016-04-14T11:45:50.472Z,1005.73
2016-04-14T11:46:50.521Z,1005.66
2016-04-14T11:47:50.555Z,1005.66
2016-04-14T11:48:50.605Z,1005.64
2016-04-14T11:49:50.654Z,1005.69
2016-04-14T11:50:50.677Z,1005.66
2016-04-14T11:51:50.727Z,1005.64
2016-04-14T11:52:50.761Z,1005.71
2016-04-14T11:53:50.795Z,1005.65
2016-04-14T11:54:50.845Z,1005.71
2016-04-14T11:55:50.879Z,1005.69
2016-04-14T11:56:50.928Z,1005.67
2016-04-14T11:57:50.962Z,1005.61
2016-04-14T11:58:50.995Z,1005.66
2016-04-14T11:59:51.045Z,1005.67
2016-04-14T12:00:51.079Z,1005.64
2016-04-14T12:01:51.114Z,1005.59
2016-04-14T12:02:51.163Z,1005.62
2016-04-14T12:03:51.197Z,1005.64
2016-04-14T12:04:51.231Z,1005.63
2016-04-14T12:05:51.280Z,1005.63
2016-04-14T12:06:51.314Z,1005.61
2016-04-14T12:07:51.364Z,1005.59
2016-04-14T12:08:51.397Z,1005.59